createdAt,value
2024-04-18T00:00:09.651Z,1.27
2024-04-18T00:02:36.262Z,1.50
2024-04-18T00:05:03.051Z,1.40
2024-04-18T00:07:29.732Z,1.55
2024-04-18T00:09:56.284Z,1.95
2024-04-18T00:12:23.086Z,1.70
2024-04-18T00:14:49.871Z,1.80
2024-04-18T00:17:16.616Z,1.45
2024-04-18T00:19:43.275Z,1.63
2024-04-18T00:22:09.805Z,2.08
2024-04-18T00:24:36.738Z,1.55
2024-04-18T00:27:03.514Z,1.60
2024-04-18T00:29:30.152Z,1.77
2024-04-18T00:31:56.868Z,1.70
2024-04-18T00:34:23.401Z,1.60
2024-04-18T00:36:49.962Z,1.35
2024-04-18T00:39:16.582Z,1.70
2024-04-18T00:41:43.249Z,1.55
2024-04-18T00:44:11.801Z,1.60
2024-04-18T00:46:39.142Z,1.80
2024-04-18T00:49:06.974Z,1.80
2024-04-18T00:51:35.484Z,1.65
2024-04-18T00:54:03.906Z,1.70
2024-04-18T00:56:30.599Z,1.63
2024-04-18T00:58:57.461Z,1.55
2024-04-18T01:01:27.064Z,1.80
2024-04-18T01:03:56.684Z,1.95
2024-04-18T01:06:24.550Z,2.20
2024-04-18T01:08:52.808Z,1.98
2024-04-18T01:11:19.548Z,1.92
2024-04-18T01:13:46.369Z,1.70
2024-04-18T01:16:12.990Z,2.00
2024-04-18T01:18:39.873Z,1.95
2024-04-18T01:21:08.807Z,1.75
2024-04-18T01:23:35.453Z,1.38
2024-04-18T01:26:02.088Z,1.90
2024-04-18T01:28:28.759Z,2.00
2024-04-18T01:30:55.478Z,1.80
2024-04-18T01:33:24.366Z,1.63
2024-04-18T01:35:52.630Z,1.58
2024-04-18T01:38:19.425Z,1.60
2024-04-18T01:40:46.178Z,2.00
2024-04-18T01:43:12.912Z,1.60
2024-04-18T01:45:39.843Z,1.90
2024-04-18T01:48:06.829Z,1.67
2024-04-18T01:50:33.817Z,1.50
2024-04-18T01:53:00.454Z,1.80
2024-04-18T01:55:27.187Z,1.63
2024-04-18T01:57:53.840Z,1.65
2024-04-18T02:00:20.858Z,1.80
2024-04-18T02:02:47.649Z,1.88
2024-04-18T02:05:14.503Z,1.80
2024-04-18T02:07:41.157Z,2.00
2024-04-18T02:10:07.869Z,1.65
2024-04-18T02:12:34.632Z,1.65
2024-04-18T02:15:01.391Z,1.95
2024-04-18T02:17:28.303Z,1.80
2024-04-18T02:19:55.113Z,1.77
2024-04-18T02:22:21.780Z,1.90
2024-04-18T02:25:14.845Z,2.10
2024-04-18T02:27:43.405Z,1.95
2024-04-18T02:30:11.506Z,1.88
2024-04-18T02:32:38.907Z,2.63
2024-04-18T02:35:06.088Z,2.08
2024-04-18T02:37:33.139Z,2.00
2024-04-18T02:39:59.727Z,1.98
2024-04-18T02:42:27.029Z,2.05
2024-04-18T02:44:53.865Z,1.95
2024-04-18T02:47:20.911Z,2.10
2024-04-18T02:49:47.800Z,2.40
2024-04-18T02:52:14.500Z,2.00
2024-04-18T02:54:43.855Z,2.08
2024-04-18T02:57:10.823Z,2.13
2024-04-18T02:59:37.745Z,2.45
2024-04-18T03:02:06.972Z,2.40
2024-04-18T03:04:33.898Z,2.58
2024-04-18T03:07:00.716Z,2.53
2024-04-18T03:09:27.645Z,2.67
2024-04-18T03:11:57.146Z,2.28
2024-04-18T03:14:23.975Z,2.72
2024-04-18T03:16:51.624Z,2.72
2024-04-18T03:19:19.272Z,2.60
2024-04-18T03:21:47.259Z,2.92
2024-04-18T03:24:19.340Z,2.88
2024-04-18T03:26:47.091Z,2.88
2024-04-18T03:29:14.147Z,2.70
2024-04-18T03:31:46.613Z,3.35
2024-04-18T03:34:13.468Z,2.70
2024-04-18T03:36:43.035Z,2.75
2024-04-18T03:39:10.427Z,2.70
2024-04-18T03:41:39.760Z,2.25
2024-04-18T03:44:07.956Z,2.70
2024-04-18T03:46:37.004Z,2.35
2024-04-18T03:49:03.744Z,2.75
2024-04-18T03:51:31.522Z,2.72
2024-04-18T03:53:58.403Z,4.05
2024-04-18T03:56:26.651Z,2.90
2024-04-18T03:58:55.810Z,2.75
2024-04-18T04:01:25.368Z,2.83
2024-04-18T04:03:54.399Z,2.35
2024-04-18T04:06:22.503Z,2.33
2024-04-18T04:08:49.889Z,2.53
2024-04-18T04:11:17.564Z,2.88
2024-04-18T04:13:47.108Z,2.53
2024-04-18T04:16:14.257Z,2.80
2024-04-18T04:18:41.611Z,2.78
2024-04-18T04:21:10.968Z,2.78
2024-04-18T04:23:38.209Z,2.67
2024-04-18T04:26:05.407Z,3.00
2024-04-18T04:28:32.479Z,2.63
2024-04-18T04:31:07.018Z,2.55
2024-04-18T04:33:34.571Z,3.30
2024-04-18T04:36:05.283Z,2.25
2024-04-18T04:38:32.759Z,3.10
2024-04-18T04:41:03.938Z,3.30
2024-04-18T04:43:32.053Z,3.58
2024-04-18T04:46:02.432Z,3.28
2024-04-18T04:48:30.642Z,3.85
2024-04-18T04:51:00.627Z,3.33
2024-04-18T04:53:27.793Z,2.97
2024-04-18T04:55:54.858Z,3.45
2024-04-18T04:58:22.147Z,3.60
2024-04-18T05:00:49.131Z,3.67
2024-04-18T05:03:15.796Z,3.20
2024-04-18T05:05:43.654Z,3.97
2024-04-18T05:08:10.295Z,3.47
2024-04-18T05:10:44.590Z,3.13
2024-04-18T05:13:15.413Z,3.55
2024-04-18T05:15:42.397Z,2.97
2024-04-18T05:18:12.167Z,2.88
2024-04-18T05:20:39.340Z,3.00
2024-04-18T05:23:08.045Z,3.05
2024-04-18T05:25:35.385Z,2.60
2024-04-18T05:28:25.047Z,3.25
2024-04-18T05:31:04.605Z,3.30
2024-04-18T05:33:32.215Z,3.47
2024-04-18T05:35:59.152Z,2.30
2024-04-18T05:38:26.679Z,2.92
2024-04-18T05:40:53.226Z,2.47
2024-04-18T05:43:20.613Z,2.78
2024-04-18T05:45:50.554Z,2.75
2024-04-18T05:48:17.282Z,2.70
2024-04-18T05:50:43.813Z,2.67
2024-04-18T05:53:10.338Z,2.42
2024-04-18T05:55:36.850Z,2.60
2024-04-18T05:58:03.515Z,2.85
2024-04-18T06:00:30.043Z,2.33
2024-04-18T06:02:56.668Z,2.80
2024-04-18T06:05:23.237Z,2.20
2024-04-18T06:07:49.768Z,2.13
2024-04-18T06:10:16.509Z,2.50
2024-04-18T06:12:43.106Z,2.72
2024-04-18T06:15:09.653Z,2.60
2024-04-18T06:17:37.827Z,2.30
2024-04-18T06:20:04.825Z,2.08
2024-04-18T06:22:31.442Z,2.03
2024-04-18T06:24:58.587Z,1.92
2024-04-18T06:27:25.259Z,1.90
2024-04-18T06:29:52.464Z,1.45
2024-04-18T06:32:19.136Z,1.55
2024-04-18T06:34:45.774Z,1.83
2024-04-18T06:37:13.107Z,1.48
2024-04-18T06:39:39.767Z,1.67
2024-04-18T06:42:06.430Z,1.13
2024-04-18T06:44:33.011Z,1.27
2024-04-18T06:47:02.348Z,1.35
2024-04-18T06:49:29.532Z,1.15
2024-04-18T06:51:56.126Z,1.40
2024-04-18T06:54:22.731Z,1.20
2024-04-18T06:56:49.326Z,1.23
2024-04-18T06:59:15.883Z,1.23
2024-04-18T07:01:42.485Z,1.13
2024-04-18T07:04:09.212Z,1.10
2024-04-18T07:06:35.925Z,1.15
2024-04-18T07:09:02.616Z,0.60
2024-04-18T07:11:29.260Z,0.95
2024-04-18T07:13:55.841Z,0.70
2024-04-18T07:16:22.786Z,0.98
2024-04-18T07:18:49.604Z,1.00
2024-04-18T07:21:16.670Z,0.77
2024-04-18T07:23:43.364Z,2.05
2024-04-18T07:26:10.196Z,0.70
2024-04-18T07:28:36.745Z,0.93
2024-04-18T07:31:03.442Z,0.50
2024-04-18T07:33:31.462Z,0.50
2024-04-18T07:36:00.650Z,0.95
2024-04-18T07:38:28.017Z,0.82
2024-04-18T07:40:54.698Z,0.60
2024-04-18T07:43:21.565Z,0.50
2024-04-18T07:45:48.146Z,0.55
2024-04-18T07:48:14.796Z,0.45
2024-04-18T07:50:41.447Z,0.60
2024-04-18T07:53:10.121Z,0.52
2024-04-18T07:55:37.421Z,0.50
2024-04-18T07:58:04.929Z,0.50
2024-04-18T08:00:34.058Z,0.40
2024-04-18T08:03:04.162Z,0.43
2024-04-18T08:05:34.973Z,0.60
2024-04-18T08:08:06.639Z,0.47
2024-04-18T08:10:45.897Z,0.40
2024-04-18T08:13:25.151Z,0.52
2024-04-18T08:18:26.665Z,0.63
2024-04-18T08:20:53.199Z,0.35
2024-04-18T08:23:21.768Z,0.40
2024-04-18T08:25:48.612Z,0.70
2024-04-18T08:28:16.210Z,0.60
2024-04-18T08:30:42.835Z,0.98
2024-04-18T08:33:09.523Z,0.30
2024-04-18T08:35:36.138Z,0.30
2024-04-18T08:38:02.916Z,0.55
2024-04-18T08:40:29.976Z,0.38
2024-04-18T08:42:56.680Z,0.60
2024-04-18T08:45:26.081Z,0.40
2024-04-18T08:47:58.046Z,1.02
2024-04-18T08:50:25.803Z,0.50
2024-04-18T08:52:53.225Z,0.30
2024-04-18T08:55:19.818Z,0.20
2024-04-18T08:57:53.312Z,0.20
2024-04-18T09:00:19.876Z,0.40
2024-04-18T09:02:48.023Z,0.30
2024-04-18T09:05:14.781Z,0.70
2024-04-18T09:07:41.428Z,0.35
2024-04-18T09:10:09.659Z,0.40
2024-04-18T09:12:36.810Z,0.35
2024-04-18T09:15:05.165Z,0.25
2024-04-18T09:17:31.935Z,0.50
2024-04-18T09:19:58.529Z,0.40
2024-04-18T09:22:25.093Z,0.60
2024-04-18T09:24:51.620Z,0.28
2024-04-18T09:27:18.195Z,0.30
2024-04-18T09:29:47.877Z,0.20
2024-04-18T09:32:16.335Z,0.40
2024-04-18T09:34:49.123Z,0.30
2024-04-18T09:37:16.906Z,0.22
2024-04-18T09:39:45.339Z,0.57
2024-04-18T09:42:23.812Z,0.30
2024-04-18T09:45:02.544Z,0.20
2024-04-18T09:47:30.361Z,0.50
2024-04-18T09:49:57.503Z,0.40
2024-04-18T09:52:26.090Z,0.40
2024-04-18T09:54:54.107Z,0.38
2024-04-18T09:57:22.462Z,0.30
2024-04-18T09:59:51.619Z,0.38
2024-04-18T10:02:18.634Z,0.20
2024-04-18T10:04:45.785Z,0.13
2024-04-18T10:07:16.400Z,0.30
2024-04-18T10:09:45.421Z,0.30
2024-04-18T10:12:12.087Z,0.20
2024-04-18T10:14:38.688Z,0.25
2024-04-18T10:17:05.578Z,0.10
2024-04-18T10:19:32.660Z,0.47
2024-04-18T10:22:11.922Z,0.40
2024-04-18T10:24:51.620Z,0.20
2024-04-18T10:27:21.346Z,0.20
2024-04-18T10:30:01.375Z,0.22
2024-04-18T10:32:29.603Z,0.30
2024-04-18T10:34:56.473Z,0.20
2024-04-18T10:37:24.029Z,0.30
2024-04-18T10:39:53.333Z,0.28
2024-04-18T10:42:21.857Z,0.20
2024-04-18T10:44:49.917Z,0.30
2024-04-18T10:47:21.754Z,0.20
2024-04-18T10:49:48.357Z,0.38
2024-04-18T10:52:18.735Z,0.22
2024-04-18T10:54:47.120Z,0.20
2024-04-18T10:57:14.075Z,0.20
2024-04-18T10:59:44.498Z,0.30
2024-04-18T11:02:11.808Z,0.30
2024-04-18T11:04:38.463Z,0.20
2024-04-18T11:07:05.131Z,0.20
2024-04-18T11:09:34.971Z,0.50
2024-04-18T11:12:03.168Z,0.30
2024-04-18T11:14:29.975Z,0.82
2024-04-18T11:17:01.590Z,0.40
2024-04-18T11:19:29.527Z,0.50
2024-04-18T11:21:58.798Z,0.30
2024-04-18T11:24:25.509Z,0.70
2024-04-18T11:26:52.787Z,0.50
2024-04-18T11:29:19.453Z,0.38
2024-04-18T11:31:46.818Z,0.50
2024-04-18T11:34:14.619Z,0.40
2024-04-18T11:36:41.203Z,0.30
2024-04-18T11:39:07.994Z,0.40
2024-04-18T11:41:34.634Z,0.20
2024-04-18T11:44:02.576Z,0.95
2024-04-18T11:46:29.206Z,0.30
2024-04-18T11:48:56.049Z,0.40
2024-04-18T11:51:22.801Z,0.30
2024-04-18T11:53:49.418Z,0.68
2024-04-18T11:56:16.003Z,0.40
2024-04-18T11:58:42.603Z,0.60
2024-04-18T12:01:11.107Z,0.20
2024-04-18T12:03:37.920Z,0.30
2024-04-18T12:06:04.878Z,0.55
2024-04-18T12:08:31.795Z,0.45
2024-04-18T12:10:58.355Z,0.40
2024-04-18T12:13:27.792Z,0.32
2024-04-18T12:15:54.809Z,0.30
2024-04-18T12:18:21.779Z,0.30
2024-04-18T12:20:48.333Z,0.60
2024-04-18T12:23:14.919Z,0.38
2024-04-18T12:25:41.641Z,0.30
2024-04-18T12:28:08.242Z,0.57
2024-04-18T12:30:34.969Z,0.50
2024-04-18T12:33:01.730Z,0.80
2024-04-18T12:35:28.502Z,0.50
2024-04-18T12:37:55.513Z,0.40
2024-04-18T12:40:22.064Z,0.50
2024-04-18T12:42:48.604Z,0.50
2024-04-18T12:45:15.279Z,0.22
2024-04-18T12:47:41.962Z,0.40
2024-04-18T12:50:08.829Z,0.55
2024-04-18T12:52:35.510Z,0.30
2024-04-18T12:55:02.383Z,0.40
2024-04-18T12:57:29.019Z,0.22
2024-04-18T12:59:55.590Z,0.20
2024-04-18T13:02:22.183Z,0.17
2024-04-18T13:04:49.698Z,0.30
2024-04-18T13:07:16.372Z,0.52
2024-04-18T13:09:43.029Z,0.10
2024-04-18T13:12:09.766Z,0.30
2024-04-18T13:14:36.440Z,0.30
2024-04-18T13:17:03.066Z,0.30
2024-04-18T13:19:29.631Z,0.40
2024-04-18T13:21:59.026Z,0.50
2024-04-18T13:24:27.124Z,0.30
2024-04-18T13:26:53.837Z,0.30
2024-04-18T13:29:21.363Z,0.38
2024-04-18T13:31:47.993Z,0.10
2024-04-18T13:34:14.620Z,0.22
2024-04-18T13:36:41.370Z,0.30
2024-04-18T13:39:09.918Z,0.10
2024-04-18T13:41:41.870Z,0.30
2024-04-18T13:44:08.419Z,0.30
2024-04-18T13:46:35.033Z,0.40
2024-04-18T13:49:01.807Z,0.20
2024-04-18T13:51:28.409Z,0.45
2024-04-18T13:53:57.100Z,0.55
2024-04-18T13:56:26.502Z,0.22
2024-04-18T13:58:53.197Z,0.30
2024-04-18T14:01:19.817Z,0.40
2024-04-18T14:03:46.461Z,0.40
2024-04-18T14:06:13.098Z,0.30
2024-04-18T14:08:43.947Z,0.28
2024-04-18T14:11:10.665Z,0.50
2024-04-18T14:13:37.221Z,0.75
2024-04-18T14:16:22.637Z,0.63
2024-04-18T14:18:52.848Z,0.38
2024-04-18T14:21:20.591Z,0.40
2024-04-18T14:23:47.233Z,0.50
2024-04-18T14:26:13.794Z,0.40
2024-04-18T14:28:40.401Z,0.47
2024-04-18T14:31:06.972Z,0.60
2024-04-18T14:33:33.629Z,0.50
2024-04-18T14:36:00.361Z,0.68
2024-04-18T14:38:27.055Z,0.38
2024-04-18T14:41:01.832Z,0.70
2024-04-18T14:43:36.114Z,0.20
2024-04-18T14:46:02.813Z,0.47
2024-04-18T14:48:29.413Z,0.30
2024-04-18T14:50:55.990Z,0.50
2024-04-18T14:53:25.733Z,0.60
2024-04-18T14:55:54.013Z,0.68
2024-04-18T14:58:20.555Z,1.02
2024-04-18T15:00:52.350Z,0.60
2024-04-18T15:03:19.743Z,0.73
2024-04-18T15:05:57.044Z,0.35
2024-04-18T15:08:24.113Z,0.60
2024-04-18T15:10:50.766Z,0.60
2024-04-18T15:13:17.392Z,0.50
2024-04-18T15:15:44.790Z,0.40
2024-04-18T15:18:15.084Z,0.57
2024-04-18T15:20:42.073Z,0.10
2024-04-18T15:23:09.601Z,0.68
2024-04-18T15:25:37.023Z,0.38
2024-04-18T15:28:03.909Z,0.75
2024-04-18T15:30:30.661Z,0.30
2024-04-18T15:32:57.320Z,0.70
2024-04-18T15:35:23.987Z,0.65
2024-04-18T15:37:50.524Z,0.70
2024-04-18T15:40:18.129Z,0.70
2024-04-18T15:42:45.264Z,0.40
2024-04-18T15:45:11.921Z,0.50
2024-04-18T15:47:38.628Z,0.70
2024-04-18T15:50:05.560Z,0.77
2024-04-18T15:52:34.192Z,0.55
2024-04-18T15:55:09.104Z,0.70
2024-04-18T15:57:42.787Z,0.90
2024-04-18T16:00:11.155Z,0.63
2024-04-18T16:02:38.281Z,0.47
2024-04-18T16:05:05.298Z,0.57
2024-04-18T16:07:32.190Z,0.43
2024-04-18T16:09:59.585Z,0.38
2024-04-18T16:12:26.295Z,0.20
2024-04-18T16:14:52.981Z,0.30
2024-04-18T16:17:19.581Z,0.20
2024-04-18T16:19:48.661Z,0.30
2024-04-18T16:22:15.278Z,0.28
2024-04-18T16:24:42.592Z,0.30
2024-04-18T16:27:09.449Z,0.57
2024-04-18T16:29:36.081Z,0.30
2024-04-18T16:32:02.720Z,0.75
2024-04-18T16:34:29.378Z,0.20
2024-04-18T16:37:09.048Z,0.20
2024-04-18T16:39:39.627Z,0.30
2024-04-18T16:42:06.721Z,0.30
2024-04-18T16:44:33.742Z,0.20
2024-04-18T16:47:00.288Z,0.55
2024-04-18T16:49:26.857Z,0.30
2024-04-18T16:51:53.575Z,0.40
2024-04-18T16:54:20.159Z,0.50
2024-04-18T16:56:46.739Z,0.70
2024-04-18T16:59:14.007Z,0.60
2024-04-18T17:01:40.874Z,0.55
2024-04-18T17:04:07.796Z,0.60
2024-04-18T17:06:45.211Z,0.80
2024-04-18T17:09:15.169Z,0.43
2024-04-18T17:11:42.425Z,0.50
2024-04-18T17:14:09.035Z,0.50
2024-04-18T17:16:35.734Z,0.30
2024-04-18T17:19:02.498Z,0.30
2024-04-18T17:21:29.235Z,0.32
2024-04-18T17:23:57.133Z,0.30
2024-04-18T17:26:25.911Z,0.30
2024-04-18T17:28:54.707Z,0.40
2024-04-18T17:31:21.460Z,0.20
2024-04-18T17:33:48.286Z,0.50
2024-04-18T17:36:15.233Z,0.20
2024-04-18T17:38:43.669Z,0.75
2024-04-18T17:41:10.274Z,0.28
2024-04-18T17:43:36.941Z,0.43
2024-04-18T17:46:03.877Z,0.60
2024-04-18T17:48:31.083Z,0.20
2024-04-18T17:50:57.999Z,0.20
2024-04-18T17:53:24.666Z,0.20
2024-04-18T17:55:54.217Z,0.43
2024-04-18T17:58:21.521Z,0.20
2024-04-18T18:00:48.526Z,0.35
2024-04-18T18:03:15.311Z,0.17
2024-04-18T18:05:43.128Z,0.43
2024-04-18T18:08:09.709Z,0.10
2024-04-18T18:10:36.264Z,0.40
2024-04-18T18:13:02.866Z,0.55
2024-04-18T18:15:29.454Z,0.20
2024-04-18T18:17:56.747Z,0.68
2024-04-18T18:20:23.415Z,0.40
2024-04-18T18:22:50.001Z,0.20
2024-04-18T18:25:16.629Z,0.43
2024-04-18T18:27:43.309Z,0.40
2024-04-18T18:30:10.526Z,0.50
2024-04-18T18:32:37.248Z,0.60
2024-04-18T18:35:04.059Z,0.60
2024-04-18T18:37:30.638Z,0.82
2024-04-18T18:39:57.292Z,0.60
2024-04-18T18:42:23.948Z,0.75
2024-04-18T18:44:50.514Z,0.43
2024-04-18T18:47:17.057Z,1.15
2024-04-18T18:49:43.648Z,0.68
2024-04-18T18:52:10.926Z,0.50
2024-04-18T18:54:37.582Z,0.32
2024-04-18T18:57:07.700Z,0.40
2024-04-18T18:59:34.683Z,0.60
2024-04-18T19:02:01.208Z,0.35
2024-04-18T19:04:28.016Z,0.50
2024-04-18T19:06:54.923Z,0.43
2024-04-18T19:09:22.774Z,0.73
2024-04-18T19:11:50.406Z,0.57
2024-04-18T19:14:17.079Z,0.45
2024-04-18T19:16:43.674Z,0.47
2024-04-18T19:19:10.244Z,0.80
2024-04-18T19:21:36.813Z,0.50
2024-04-18T19:24:03.533Z,0.60
2024-04-18T19:26:30.217Z,0.93
2024-04-18T19:28:56.773Z,0.70
2024-04-18T19:31:23.440Z,0.90
2024-04-18T19:33:50.245Z,1.13
2024-04-18T19:36:17.205Z,1.10
2024-04-18T19:38:44.142Z,0.80
2024-04-18T19:41:10.785Z,0.60
2024-04-18T19:43:37.316Z,0.70
2024-04-18T19:46:04.181Z,0.95
2024-04-18T19:48:31.806Z,0.60
2024-04-18T19:50:58.383Z,1.13
2024-04-18T19:53:25.381Z,1.00
2024-04-18T19:55:52.224Z,0.82
2024-04-18T19:58:19.097Z,0.52
2024-04-18T20:00:45.996Z,0.45
2024-04-18T20:03:13.854Z,1.13
2024-04-18T20:05:40.555Z,0.88
2024-04-18T20:08:07.867Z,0.68
2024-04-18T20:10:35.078Z,0.90
2024-04-18T20:13:02.003Z,0.70
2024-04-18T20:15:28.731Z,0.88
2024-04-18T20:17:55.554Z,0.63
2024-04-18T20:20:22.196Z,0.65
2024-04-18T20:22:48.747Z,0.80
2024-04-18T20:25:15.425Z,0.90
2024-04-18T20:27:42.027Z,0.82
2024-04-18T20:30:08.769Z,1.00
2024-04-18T20:32:36.231Z,0.98
2024-04-18T20:35:02.925Z,0.90
2024-04-18T20:37:29.544Z,0.70
2024-04-18T20:39:58.884Z,0.57
2024-04-18T20:42:26.778Z,0.53
2024-04-18T20:44:53.704Z,0.70
2024-04-18T20:47:21.253Z,0.88
2024-04-18T20:49:47.810Z,0.80
2024-04-18T20:52:14.392Z,0.98
2024-04-18T20:54:40.981Z,0.82
2024-04-18T20:57:07.601Z,0.70
2024-04-18T20:59:34.182Z,0.60
2024-04-18T21:02:00.811Z,0.60
2024-04-18T21:04:27.533Z,0.20
2024-04-18T21:06:54.175Z,0.52
2024-04-18T21:09:20.916Z,0.70
2024-04-18T21:11:47.526Z,0.60
2024-04-18T21:14:14.140Z,0.50
2024-04-18T21:16:40.784Z,0.50
2024-04-18T21:19:07.506Z,0.60
2024-04-18T21:21:34.449Z,1.75
2024-04-18T21:24:00.992Z,0.68
2024-04-18T21:26:27.594Z,0.90
2024-04-18T21:28:54.309Z,1.05
2024-04-18T21:31:20.862Z,1.42
2024-04-18T21:33:47.608Z,1.00
2024-04-18T21:36:14.223Z,0.75
2024-04-18T21:38:50.865Z,0.85
2024-04-18T21:41:25.216Z,1.08
2024-04-18T21:43:55.489Z,1.20
2024-04-18T21:46:22.051Z,1.00
2024-04-18T21:48:48.824Z,1.35
2024-04-18T21:51:15.543Z,2.58
2024-04-18T21:53:42.243Z,1.58
2024-04-18T21:56:10.031Z,1.05
2024-04-18T21:58:36.789Z,1.35
2024-04-18T22:01:03.614Z,1.30
2024-04-18T22:03:30.316Z,1.10
2024-04-18T22:05:58.038Z,0.95
2024-04-18T22:08:24.663Z,0.80
2024-04-18T22:10:51.282Z,1.05
2024-04-18T22:13:17.885Z,0.90
2024-04-18T22:15:44.598Z,0.90
2024-04-18T22:18:11.382Z,1.05
2024-04-18T22:20:38.325Z,0.85
2024-04-18T22:23:07.046Z,1.00
2024-04-18T22:25:33.594Z,1.00
2024-04-18T22:28:00.357Z,0.65
2024-04-18T22:30:27.129Z,1.08
2024-04-18T22:32:53.821Z,0.52
2024-04-18T22:35:20.476Z,1.10
2024-04-18T22:37:47.690Z,0.68
2024-04-18T22:40:14.337Z,1.08
2024-04-18T22:42:41.170Z,0.80
2024-04-18T22:45:08.094Z,1.02
2024-04-18T22:47:34.885Z,1.10
2024-04-18T22:50:01.655Z,1.00
2024-04-18T22:52:28.293Z,1.15
2024-04-18T22:54:55.832Z,1.30
2024-04-18T22:57:22.528Z,1.13
2024-04-18T22:59:49.786Z,0.80
2024-04-18T23:02:16.777Z,0.90
2024-04-18T23:04:43.642Z,0.90
2024-04-18T23:07:10.562Z,1.33
2024-04-18T23:09:37.497Z,0.85
2024-04-18T23:12:04.570Z,1.35
2024-04-18T23:14:31.301Z,0.90
2024-04-18T23:16:57.872Z,1.13
2024-04-18T23:19:24.436Z,1.02
2024-04-18T23:21:51.086Z,1.33
2024-04-18T23:24:17.757Z,1.10
2024-04-18T23:26:44.412Z,1.15
2024-04-18T23:29:11.058Z,1.45
2024-04-18T23:31:37.724Z,1.50
2024-04-18T23:34:04.298Z,1.38
2024-04-18T23:36:30.944Z,1.60
2024-04-18T23:38:57.636Z,1.90
2024-04-18T23:41:24.267Z,1.77
2024-04-18T23:43:50.829Z,1.60
2024-04-18T23:46:17.384Z,1.98
2024-04-18T23:48:44.176Z,1.00
2024-04-18T23:51:10.906Z,1.92
2024-04-18T23:53:37.533Z,1.35
2024-04-18T23:56:04.374Z,1.77
2024-04-18T23:58:31.168Z,1.60
